Stations météo

réclame
Mon MeteoGroup
Ernage, Belgique (6459): Température de l'air & dewpoint: 15.07.2019 19:00:00 - 21.07.2019 19:00:00 (CEST)Ernage, Belgique (6459): Vitesse du vent & gusts: 15.07.2019 19:00:00 - 21.07.2019 19:00:00 (CEST)Ernage, Belgique (6459): Direction du vent: 15.07.2019 19:00:00 - 21.07.2019 19:00:00 (CEST)Ernage, Belgique (6459): reduced air pressure: 15.07.2019 19:00:00 - 21.07.2019 19:00:00 (CEST)Ernage, Belgique (6459): Ensoleillement: 15.07.2019 19:00:00 - 21.07.2019 19:00:00 (CEST)Ernage, Belgique (6459): Quantités de précipitations: 15.07.2019 19:00:00 - 21.07.2019 19:00:00 (CEST)
Date & Time tt [°C] td [°C] ff [km/h] ff [knt] fx [km/h] fx [knt] dd ppp [hPa] sd [min] rr [mm]
21.07.2019 19:00:00 23,9 10,1 13 7 26 14 WSW 1022,4 60 0,0
21.07.2019 18:00:00 24,0 11,0 11 6 24 13 W 1022,3 59 0,0
21.07.2019 17:00:00 24,2 11,1 16 9 25 13 W 1022,5 60 0,0
21.07.2019 16:00:00 23,5 12,2 18 10 27 15 W 1022,5 40 0,0
21.07.2019 15:00:00 23,0 12,0 14 8 26 14 W 1022,5 36 0,0
21.07.2019 14:00:00 22,3 12,9 14 8 31 17 WSW 1022,5 35 0,0
21.07.2019 13:00:00 21,9 13,4 16 8 25 13 WSW 1022,4 51 0,0
21.07.2019 12:00:00 20,7 14,4 11 6 23 13 SW 1021,8 57 0,0
21.07.2019 11:00:00 19,2 15,0 12 7 21 11 SW 1021,8 60 0,0
21.07.2019 10:00:00 18,0 15,0 11 6 19 10 SW 1021,3 60 0,0
21.07.2019 09:00:00 16,4 14,5 12 7 23 13 SW 1020,7 60 0,0
21.07.2019 08:00:00 15,1 14,0 11 6 21 11 SW 1020,3 40 0,0
21.07.2019 07:00:00 14,2 13,3 11 6 16 9 SW 1019,8 0 0,0
21.07.2019 06:00:00 13,8 12,6 10 5 17 9 SW 1019,1 0 0,0
21.07.2019 05:00:00 14,3 12,7 10 6 18 10 SW 1018,5 0 0,0
21.07.2019 04:00:00 14,8 12,9 13 7 22 12 SW 1017,7 0 0,0
21.07.2019 03:00:00 15,4 13,1 14 8 19 11 SSW 1017,4 0 0,0
21.07.2019 02:00:00 15,2 12,6 11 6 18 10 SW 1017,2 0 0,0
21.07.2019 01:00:00 16,0 12,7 10 6 19 11 W 1016,9 0 0,0
21.07.2019 00:00:00 16,7 12,6 13 7 22 12 WSW 1016,2 0 0,0
20.07.2019 23:00:00 18,4 12,9 13 7 23 13 WSW 1015,7 0 0,0
20.07.2019 22:00:00 20,0 13,3 18 10 28 15 W 1014,6 33 0,0
20.07.2019 21:00:00 21,7 15,0 19 10 33 18 W 1013,4 46 0,0
20.07.2019 20:00:00 22,7 16,2 18 10 38 21 SW 1012,7 45 0,0
20.07.2019 19:00:00 23,1 16,3 28 15 40 22 WSW 1012,4 60 0,0
20.07.2019 18:00:00 22,5 17,5 26 14 44 24 SW 1012,1 60 0,0
20.07.2019 17:00:00 19,3 17,3 11 6 58 32 SSW 1011,8 2 6,7
20.07.2019 16:00:00 20,7 13,7 22 12 45 24 W 1011,3 0 0,0
20.07.2019 15:00:00 25,6 13,3 24 13 47 26 SW 1010,5 18 0,1
20.07.2019 14:00:00 26,6 15,1 29 16 42 23 SSW 1010,3 20 0,0
20.07.2019 13:00:00 25,3 15,9 16 9 27 15 SSW 1010,2 27 0,0
20.07.2019 12:00:00 23,2 15,1 8 5 14 7 SSW 1010,4 12 0,0
20.07.2019 11:00:00 22,1 15,6 8 5 18 10 NW 1010,5 5 0,1
20.07.2019 10:00:00 22,3 15,0 13 7 26 14 S 1010,2 1 0,0
20.07.2019 09:00:00 21,7 15,2 11 6 20 11 SSE 1010,3 27 0,0
20.07.2019 08:00:00 19,2 14,6 11 6 21 11 SSE 1010,6 31 0,0
20.07.2019 07:00:00 17,5 14,1 16 8 23 13 SE 1010,8 5 0,0
20.07.2019 06:00:00 17,0 13,8 14 8 23 13 SSE 1011,0 0 0,0
20.07.2019 05:00:00 16,9 14,0 16 9 23 12 SSE 1011,4 0 0,0
20.07.2019 04:00:00 17,1 13,9 11 6 16 9 SE 1011,7 0 0,0
20.07.2019 03:00:00 17,8 13,8 10 6 19 10 SE 1011,9 0 0,0
20.07.2019 02:00:00 17,7 13,8 11 6 15 8 SE 1012,5 0 0,0
20.07.2019 01:00:00 17,4 13,4 8 4 11 6 SE 1013,0 0 0,0
20.07.2019 00:00:00 18,1 13,5 9 5 14 8 SE 1013,3 0 0,0
19.07.2019 23:00:00 18,6 13,2 9 5 12 7 SE 1013,4 0 0,0
19.07.2019 22:00:00 19,7 13,3 8 4 13 7 SSE 1013,5 0 0,0
19.07.2019 21:00:00 21,7 13,2 9 5 18 10 S 1013,5 0 0,0
19.07.2019 20:00:00 23,0 12,4 14 8 23 12 SSW 1013,7 1 0,0
19.07.2019 19:00:00 23,5 12,0 13 7 28 15 SW 1013,7 57 0,0
19.07.2019 18:00:00 24,0 11,7 16 8 28 15 SSW 1013,8 60 0,0
19.07.2019 17:00:00 23,7 11,1 15 8 42 23 SW 1014,2 58 0,0
19.07.2019 16:00:00 23,0 11,4 14 7 33 18 SSW 1014,6 60 0,0
19.07.2019 15:00:00 22,8 10,8 17 9 32 17 SW 1014,7 49 0,0
19.07.2019 14:00:00 21,7 10,2 14 8 25 13 SSW 1014,9 34 0,0
19.07.2019 13:00:00 21,2 11,6 18 10 30 16 SSW 1015,2 54 0,0
19.07.2019 12:00:00 20,4 12,7 16 9 24 13 SW 1015,2 57 0,0
19.07.2019 11:00:00 18,3 13,5 14 8 22 12 SW 1015,5 0 0,0
19.07.2019 10:00:00 17,2 13,4 14 8 22 12 SW 1015,6 29 0,0
19.07.2019 09:00:00 16,5 13,4 14 8 22 12 SSW 1015,4 27 0,0
19.07.2019 08:00:00 15,6 13,1 11 6 16 9 SSW 1014,9 0 0,0
19.07.2019 07:00:00 15,0 12,9 10 5 16 9 SSW 1014,6 0 0,0
19.07.2019 06:00:00 14,8 12,6 10 6 19 10 SSW 1014,3 0 0,0
19.07.2019 05:00:00 15,3 12,8 11 6 20 11 SW 1014,3 0 0,0
19.07.2019 04:00:00 16,4 14,4 14 8 24 13 W 1014,2 0 0,0
19.07.2019 03:00:00 17,0 15,7 8 5 13 7 SW 1014,0 0 0,0
19.07.2019 02:00:00 16,9 15,4 7 4 14 8 SSW 1014,0 0 0,0
19.07.2019 01:00:00 17,2 15,0 9 5 18 10 SW 1014,0 0 0,0
19.07.2019 00:00:00 18,0 14,7 9 5 14 8 SW 1013,7 0 0,0
18.07.2019 23:00:00 18,4 14,5 11 6 16 9 SSW 1013,4 0 0,0
18.07.2019 22:00:00 18,8 14,3 11 6 21 11 SW 1013,5 0 0,0
18.07.2019 21:00:00 19,2 14,0 16 9 29 15 SW 1013,3 0 0,0
18.07.2019 20:00:00 19,9 13,8 14 8 31 17 W 1012,7 0 0,0
18.07.2019 19:00:00 21,6 10,9 19 10 33 18 W 1012,3 0 0,0
18.07.2019 18:00:00 22,3 12,6 16 8 32 17 WSW 1012,1 0 0,0
18.07.2019 17:00:00 22,9 12,0 17 9 30 16 WSW 1011,9 0 0,0
18.07.2019 16:00:00 22,3 11,5 19 10 35 19 WSW 1012,2 4 0,0
18.07.2019 15:00:00 22,5 10,2 21 11 34 18 WSW 1012,1 23 0,0
18.07.2019 14:00:00 22,0 11,3 18 10 34 19 WSW 1012,2 19 0,0
18.07.2019 13:00:00 21,8 12,2 20 11 34 19 SW 1012,3 42 0,0
18.07.2019 12:00:00 20,3 12,2 17 9 26 14 SSW 1012,5 17 0,0
18.07.2019 11:00:00 19,2 12,3 13 7 23 12 SW 1012,4 44 0,0
18.07.2019 10:00:00 17,9 11,9 11 6 22 12 SW 1012,8 60 0,0
18.07.2019 09:00:00 16,4 10,8 10 6 18 10 SW 1012,7 35 0,0
18.07.2019 08:00:00 15,6 11,6 11 6 18 10 SW 1012,6 40 0,0
18.07.2019 07:00:00 14,4 11,6 10 6 16 9 SW 1012,6 0 0,0
18.07.2019 06:00:00 15,0 11,4 8 4 13 7 SW 1012,6 0 0,0
18.07.2019 05:00:00 14,4 11,6 6 4 12 7 SSE 1012,2 0 0,0
18.07.2019 04:00:00 15,0 11,5 8 5 11 6 ESE 1012,4 0 0,0
18.07.2019 03:00:00 15,0 11,5 7 4 10 6 ESE 1012,9 0 0,0
18.07.2019 02:00:00 16,4 11,3 7 4 12 7 ESE 1013,1 0 0,0
18.07.2019 01:00:00 17,2 12,1 6 4 10 6 ESE 1013,1 0 0,0
18.07.2019 00:00:00 16,9 11,8 7 4 10 5 ESE 1013,3 0 0,0
17.07.2019 23:00:00 17,6 12,2 5 3 9 5 E 1013,5 0 0,0
17.07.2019 22:00:00 18,9 12,5 8 4 10 5 E 1013,5 0 0,0
17.07.2019 21:00:00 20,5 12,6 8 4 11 6 NE 1013,3 0 0,0
17.07.2019 20:00:00 22,0 12,3 7 4 12 7 NE 1013,4 6 0,0
17.07.2019 19:00:00 22,9 11,2 8 4 15 8 N 1013,6 60 0,0
17.07.2019 18:00:00 23,9 10,9 9 5 18 10 ENE 1013,8 60 0,0
17.07.2019 17:00:00 23,6 10,9 8 5 16 8 NE 1014,4 60 0,0
17.07.2019 16:00:00 23,0 10,9 9 5 18 10 NNE 1014,9 60 0,0
17.07.2019 15:00:00 22,7 11,6 7 4 17 9 NNW 1015,1 60 0,0
17.07.2019 14:00:00 22,7 13,4 7 4 18 10 N 1015,4 60 0,0
17.07.2019 13:00:00 20,6 12,6 7 4 15 8 N 1016,2 60 0,0
17.07.2019 12:00:00 19,2 12,0 4 2 16 9 NW 1016,7 60 0,0
17.07.2019 11:00:00 18,5 12,2 5 3 12 7 NE 1016,7 60 0,0
17.07.2019 10:00:00 17,8 12,2 8 4 12 7 ENE 1016,9 60 0,0
17.07.2019 09:00:00 15,7 14,5 4 2 5 3 ENE 1016,9 60 0,0
17.07.2019 08:00:00 12,1 12,1 0 0 5 3 N 1017,0 60 0,0
17.07.2019 07:00:00 7,9 7,7 4 2 5 3 SSE 1017,4 12 0,0
17.07.2019 06:00:00 8,2 7,9 4 2 3 2 S 1017,5 0 0,0
17.07.2019 05:00:00 8,4 8,0 4 2 4 2 S 1017,3 0 0,0
17.07.2019 04:00:00 8,7 8,1 0 0 4 2 N 1017,8 0 0,0
17.07.2019 03:00:00 10,0 9,4 4 2 6 3 W 1018,2 0 0,0
17.07.2019 02:00:00 9,9 9,1 4 2 4 2 SSE 1018,3 0 0,0
17.07.2019 01:00:00 10,6 8,9 0 0 3 2 N 1018,5 0 0,0
17.07.2019 00:00:00 11,4 9,1 0 0 5 3 N 1018,4 0 0,0
16.07.2019 23:00:00 12,7 9,9 4 2 8 5 N 1018,5 0 0,0
16.07.2019 22:00:00 15,3 10,9 8 4 10 5 NNE 1018,1 12 0,0
16.07.2019 21:00:00 18,1 12,2 6 3 8 5 N 1018,0 60 0,0
16.07.2019 20:00:00 19,4 10,4 4 2 11 6 NNE 1017,9 59 0,0
16.07.2019 19:00:00 19,4 10,4 6 3 13 7 NNE 1018,1 58 0,0
16.07.2019 18:00:00 19,1 10,5 6 3 13 7 NNE 1018,4 59 0,0
16.07.2019 17:00:00 19,2 10,6 5 3 15 8 ENE 1018,8 60 0,0
16.07.2019 16:00:00 18,7 10,4 5 3 15 8 NW 1019,3 60 0,0
16.07.2019 15:00:00 17,3 10,2 8 4 15 8 NNE 1019,7 10 0,0
16.07.2019 14:00:00 16,4 9,7 7 4 14 8 NNW 1020,1 0 0,0
16.07.2019 13:00:00 15,7 9,9 4 2 13 7 NNW 1020,5 0 0,0
16.07.2019 12:00:00 15,2 9,9 4 2 13 7 NW 1020,5 0 0,0
16.07.2019 11:00:00 15,0 10,6 4 2 9 5 W 1020,8 0 0,0
16.07.2019 10:00:00 14,5 11,6 4 2 9 5 W 1020,8 0 0,0
16.07.2019 09:00:00 13,9 11,5 0 0 7 4 N 1020,7 0 0,0
16.07.2019 08:00:00 13,1 12,1 4 2 9 5 N 1020,6 0 0,0
16.07.2019 07:00:00 12,7 11,9 0 0 7 4 N 1020,5 0 0,0
16.07.2019 06:00:00 12,5 11,6 5 3 8 4 N 1020,3 0 0,0
16.07.2019 05:00:00 12,4 11,2 5 3 12 7 NNE 1020,2 0 0,0
16.07.2019 04:00:00 12,6 11,4 7 4 12 6 N 1020,6 0 0,0
16.07.2019 03:00:00 13,0 11,5 8 4 16 9 N 1020,9 0 0,0
16.07.2019 02:00:00 12,9 11,6 7 4 10 6 N 1020,9 0 0,0
16.07.2019 01:00:00 12,4 10,2 8 5 10 6 NNW 1021,1 0 0,0
16.07.2019 00:00:00 13,6 11,0 8 4 10 6 NW 1021,0 0 0,0
15.07.2019 23:00:00 14,0 10,9 8 4 14 8 N 1020,8 0 0,0
15.07.2019 22:00:00 15,0 11,5 10 5 13 7 N 1020,6 0 0,0
15.07.2019 21:00:00 15,7 11,3 6 3 13 7 N 1020,5 0 0,0
15.07.2019 20:00:00 16,2 10,9 7 4 15 8 N 1020,4 4 0,0
15.07.2019 19:00:00 16,5 10,2 12 7 18 10 N 1020,6 11 0,0

tt = Température de l'air
td = dewpoint
ff = Vitesse du vent
fx = gusts
dd = Direction du vent
ppp = reduced air pressure
sd = Ensoleillement
rr = Quantités de précipitations

stations d'obs. à proximité